Time;durP1;ratioP1;P1;durP2;ratioP2;P2;SDS_P1;SDS_P2;PMS_P1;PMS_P2;Temp;Humidity;BMP_temperature;BMP_pressure;BME280_temperature;BME280_humidity;BME280_pressure;Samples;Min_cycle;Max_cycle;Signal;HPM_P1;HPM_P2
2023/12/13 00:21:59;;;;;;;1.03;0.60;;;;;;;9.37;87.25;95303.84;5223316;23;20055;-80
2023/12/13 00:24:26;;;;;;;1.48;0.47;;;;;;;9.36;87.25;95297.06;4954136;29;20827;-80
2023/12/13 00:26:54;;;;;;;1.77;0.40;;;;;;;9.36;87.56;95304.03;4954267;29;20047;-79
2023/12/13 00:29:21;;;;;;;1.85;0.25;;;;;;;9.33;86.08;95300.03;4954236;29;20102;-80
2023/12/13 00:31:49;;;;;;;3.72;0.20;;;;;;;9.30;85.05;95299.69;4953922;29;20051;-80
2023/12/13 00:34:16;;;;;;;1.40;0.68;;;;;;;9.27;86.41;95304.28;4954305;29;20085;-80
2023/12/13 02:37:29;;;;;;;1.25;0.70;;;;;;;7.88;82.84;95257.59;5065415;23;20515;-80
2023/12/13 02:39:58;;;;;;;1.58;0.60;;;;;;;7.84;82.73;95250.16;4975816;28;20490;-80
2023/12/13 02:42:26;;;;;;;1.58;0.50;;;;;;;7.82;82.66;95246.19;4976867;28;20050;-80
2023/12/13 02:44:53;;;;;;;1.10;0.60;;;;;;;7.79;82.50;95252.56;4975760;28;20051;-80
2023/12/13 02:47:25;;;;;;;1.75;0.75;;;;;;;7.78;82.70;95248.38;4976226;28;20557;-80
2023/12/13 02:52:22;;;;;;;1.50;0.55;;;;;;;7.78;84.03;95239.78;4917161;29;20086;-80
2023/12/13 02:54:51;;;;;;;4.00;0.52;;;;;;;7.78;85.06;95234.59;4917538;29;20056;-79
2023/12/13 02:57:18;;;;;;;4.53;0.60;;;;;;;7.82;85.47;95234.00;4917116;29;20124;-79
2023/12/13 02:59:46;;;;;;;2.97;0.77;;;;;;;7.80;84.44;95235.97;4919342;29;20492;-79
2023/12/13 03:02:13;;;;;;;4.80;1.00;;;;;;;7.77;83.92;95226.00;4935645;29;20064;-79
2023/12/13 03:04:41;;;;;;;0.82;0.45;;;;;;;7.75;83.68;95228.00;4936001;29;20055;-79
2023/12/13 03:07:08;;;;;;;3.28;0.70;;;;;;;7.73;83.13;95227.41;4936049;29;20577;-79
2023/12/13 03:09:36;;;;;;;1.92;0.70;;;;;;;7.73;83.87;95222.19;4935479;29;20062;-79
2023/12/13 03:12:05;;;;;;;2.17;0.75;;;;;;;7.70;83.61;95220.00;4935734;29;20047;-79
2023/12/13 03:14:33;;;;;;;2.28;0.75;;;;;;;7.70;83.46;95220.00;4935911;29;20111;-79
2023/12/13 03:17:01;;;;;;;3.92;0.90;;;;;;;7.71;83.16;95215.63;4935426;29;20555;-80
2023/12/13 03:19:28;;;;;;;7.03;1.00;;;;;;;7.72;83.15;95219.78;4935025;29;20056;-79
2023/12/13 03:21:56;;;;;;;2.97;0.95;;;;;;;7.74;83.26;95221.22;4935754;29;20058;-79
2023/12/13 03:24:23;;;;;;;2.50;0.50;;;;;;;7.74;83.04;95205.66;4935775;29;20116;-79
2023/12/13 03:26:51;;;;;;;1.00;0.57;;;;;;;7.75;84.83;95207.22;4935796;29;20052;-79
2023/12/13 03:29:20;;;;;;;2.17;0.60;;;;;;;7.76;84.82;95208.03;4935427;29;20123;-80
2023/12/13 03:31:47;;;;;;;1.75;0.70;;;;;;;7.75;85.16;95206.44;4935251;29;20564;-79
2023/12/13 03:34:16;;;;;;;1.48;0.63;;;;;;;7.78;86.45;95204.25;4935326;29;20064;-80
2023/12/13 03:36:43;;;;;;;1.25;0.70;;;;;;;7.83;87.50;95207.03;4935772;29;20051;-79
2023/12/13 03:39:11;;;;;;;2.83;1.35;;;;;;;7.83;86.38;95207.03;4935247;29;20088;-79
2023/12/13 03:41:39;;;;;;;1.60;0.88;;;;;;;7.86;86.78;95205.84;4935190;29;20048;-79
2023/12/13 03:44:06;;;;;;;2.15;0.77;;;;;;;7.89;86.75;95202.03;4935246;29;20056;-79
2023/12/13 03:46:35;;;;;;;2.70;1.17;;;;;;;7.87;85.33;95196.25;4935312;29;20083;-79
2023/12/13 03:49:07;;;;;;;4.68;1.23;;;;;;;7.86;84.98;95184.28;4935067;29;20048;-79
2023/12/13 03:51:35;;;;;;;2.17;0.70;;;;;;;7.87;84.61;95173.72;4935001;29;20056;-79
2023/12/13 03:54:02;;;;;;;2.13;0.65;;;;;;;7.88;85.30;95172.69;4935230;29;20142;-79
2023/12/13 03:56:30;;;;;;;3.30;0.70;;;;;;;7.91;85.46;95176.69;4935356;29;20047;-79
2023/12/13 03:58:58;;;;;;;2.22;0.77;;;;;;;7.94;85.73;95171.09;4934942;29;20111;-80
2023/12/13 04:01:26;;;;;;;3.47;0.70;;;;;;;7.96;84.99;95174.28;4935229;29;20111;-80
2023/12/13 04:03:54;;;;;;;4.13;1.13;;;;;;;7.95;84.36;95167.50;4935280;29;20060;-79
2023/12/13 04:06:22;;;;;;;5.13;1.48;;;;;;;7.99;85.98;95173.91;4935276;29;20055;-79
2023/12/13 04:08:50;;;;;;;3.97;1.05;;;;;;;8.03;86.31;95178.47;4934608;29;20103;-79
2023/12/13 04:11:17;;;;;;;2.25;0.98;;;;;;;8.03;84.93;95182.88;4935285;29;20052;-79
2023/12/13 04:13:46;;;;;;;3.55;0.90;;;;;;;8.03;84.97;95188.09;4935126;29;20055;-79
2023/12/13 04:16:13;;;;;;;3.08;0.88;;;;;;;8.03;85.65;95180.28;4935382;29;20468;-79
2023/12/13 04:18:41;;;;;;;3.40;0.77;;;;;;;8.05;86.92;95183.50;4934993;29;20106;-80
2023/12/13 04:21:10;;;;;;;3.67;0.88;;;;;;;8.05;85.97;95193.88;4934821;29;20071;-79
2023/12/13 04:23:37;;;;;;;0.63;0.60;;;;;;;8.05;87.04;95193.88;4934654;29;20059;-79
2023/12/13 04:26:05;;;;;;;6.35;1.80;;;;;;;8.09;87.26;95194.25;4934966;29;20094;-79
2023/12/13 04:28:33;;;;;;;4.75;1.25;;;;;;;8.07;86.71;95191.88;4934583;29;20062;-79
2023/12/13 04:31:01;;;;;;;5.15;1.10;;;;;;;8.08;86.42;95188.28;4937869;29;20530;-80
2023/12/13 04:33:28;;;;;;;3.17;1.30;;;;;;;8.13;87.22;95193.66;4938497;29;20428;-80
2023/12/13 04:36:00;;;;;;;5.13;1.20;;;;;;;8.18;86.98;95195.66;4938229;29;20059;-79
2023/12/13 04:38:29;;;;;;;4.03;1.30;;;;;;;8.17;85.95;95188.88;4938027;29;20095;-79
2023/12/13 04:40:56;;;;;;;2.10;1.10;;;;;;;8.15;85.23;95198.66;4939176;29;20055;-80
2023/12/13 04:43:24;;;;;;;4.85;1.63;;;;;;;8.12;84.95;95194.66;4938174;29;20092;-79
2023/12/13 04:45:52;;;;;;;2.97;1.80;;;;;;;8.13;86.91;95198.06;4938184;29;20058;-79
2023/12/13 04:48:19;;;;;;;4.25;1.52;;;;;;;8.14;87.35;95202.25;4937919;29;20056;-79
2023/12/13 04:50:47;;;;;;;3.45;1.58;;;;;;;8.14;86.80;95203.06;4938111;29;20056;-79
2023/12/13 04:53:14;;;;;;;4.72;1.80;;;;;;;8.17;87.31;95194.84;4938088;29;20048;-79
2023/12/13 04:55:44;;;;;;;2.60;1.30;;;;;;;8.18;86.93;95198.28;4937913;29;20059;-79
2023/12/13 04:58:11;;;;;;;4.22;1.30;;;;;;;8.19;86.26;95199.84;4938045;29;20048;-79
2023/12/13 05:00:38;;;;;;;2.20;1.10;;;;;;;8.18;85.40;95196.47;4937988;29;20062;-79
2023/12/13 05:03:05;;;;;;;4.50;1.20;;;;;;;8.15;85.27;95194.25;4937727;29;20056;-79
2023/12/13 05:05:33;;;;;;;1.45;0.80;;;;;;;8.16;86.38;95197.66;4937841;29;20048;-79
2023/12/13 05:08:01;;;;;;;6.03;2.00;;;;;;;8.19;86.66;95202.44;4937832;29;20130;-79
2023/12/13 05:10:28;;;;;;;3.28;1.55;;;;;;;8.20;88.11;95191.88;4937845;29;20134;-79
2023/12/13 05:12:57;;;;;;;2.20;0.98;;;;;;;8.27;89.50;95196.25;4937792;29;20059;-79
2023/12/13 05:15:25;;;;;;;2.53;1.55;;;;;;;8.31;90.00;95195.66;4937553;29;20051;-79
2023/12/13 05:17:53;;;;;;;3.47;1.40;;;;;;;8.32;89.08;95193.84;4937540;29;20126;-78
2023/12/13 05:20:20;;;;;;;4.72;1.75;;;;;;;8.30;88.76;95190.66;4937899;29;20078;-79
2023/12/13 05:22:48;;;;;;;2.83;1.60;;;;;;;8.28;88.27;95197.84;4937565;29;20512;-79
2023/12/13 05:25:16;;;;;;;4.28;1.25;;;;;;;8.22;87.04;95197.66;4937526;29;20142;-79
2023/12/13 05:27:44;;;;;;;1.98;1.20;;;;;;;8.17;86.34;95187.06;4937533;29;20522;-79
2023/12/13 05:30:14;;;;;;;2.65;1.73;;;;;;;8.13;85.65;95190.25;4937370;29;20047;-78
2023/12/13 05:32:42;;;;;;;2.40;1.67;;;;;;;8.08;85.77;95167.50;4937847;29;20051;-79
2023/12/13 05:35:10;;;;;;;2.45;1.33;;;;;;;8.07;85.74;95163.31;4937988;29;20059;-78
2023/12/13 05:37:38;;;;;;;1.90;1.50;;;;;;;8.04;85.60;95156.69;4937237;29;20059;-79
2023/12/13 05:40:07;;;;;;;5.35;1.25;;;;;;;8.04;85.84;95153.31;4937287;29;20499;-79
2023/12/13 05:42:34;;;;;;;2.58;0.90;;;;;;;8.03;85.57;95144.72;4936673;29;20056;-79
2023/12/13 05:45:02;;;;;;;2.35;1.20;;;;;;;8.01;85.00;95143.34;4937344;29;20119;-78
2023/12/13 05:47:31;;;;;;;2.97;0.90;;;;;;;7.97;84.81;95137.72;4937722;29;20055;-79
2023/12/13 05:49:59;;;;;;;7.35;1.63;;;;;;;7.95;84.70;95139.72;4937260;29;20055;-79
2023/12/13 05:52:27;;;;;;;8.95;1.92;;;;;;;7.91;84.62;95143.72;4937513;29;20066;-79
2023/12/13 05:54:55;;;;;;;4.75;1.25;;;;;;;7.87;84.41;95149.53;4937467;29;20051;-79
2023/12/13 05:57:22;;;;;;;4.50;1.45;;;;;;;7.84;84.52;95146.31;4937085;29;20542;-79
2023/12/13 05:59:50;;;;;;;1.80;1.00;;;;;;;7.81;84.76;95151.94;4936829;29;20103;-79
2023/12/13 06:02:18;;;;;;;2.90;1.60;;;;;;;7.80;84.79;95160.69;4937098;29;20052;-79
2023/12/13 06:04:46;;;;;;;4.57;2.28;;;;;;;7.78;84.48;95167.91;4937004;29;20103;-80
2023/12/13 06:07:14;;;;;;;5.47;1.92;;;;;;;7.76;84.55;95164.72;4936832;29;20492;-78
2023/12/13 06:09:42;;;;;;;5.50;2.40;;;;;;;7.73;84.71;95165.09;4936525;29;20058;-77
2023/12/13 06:12:11;;;;;;;3.92;2.95;;;;;;;7.74;85.07;95160.69;4938028;29;20075;-78
2023/12/13 06:14:39;;;;;;;8.10;4.40;;;;;;;7.74;84.87;95161.53;4936851;29;20062;-78
2023/12/13 06:17:06;;;;;;;8.52;4.05;;;;;;;7.72;84.21;95158.31;4936189;29;20134;-78
2023/12/13 06:19:34;;;;;;;4.43;3.30;;;;;;;7.70;84.22;95157.72;4926824;29;20048;-78
2023/12/13 06:22:03;;;;;;;5.15;3.33;;;;;;;7.68;83.80;95159.72;4928460;29;20480;-78
2023/12/13 06:24:30;;;;;;;4.03;2.97;;;;;;;7.64;83.99;95159.31;4935636;29;20181;-78
2023/12/13 06:26:58;;;;;;;6.22;3.75;;;;;;;7.64;83.82;95158.50;4936206;29;20110;-79
2023/12/13 06:29:25;;;;;;;8.05;4.00;;;;;;;7.59;83.41;95147.94;4935980;29;20095;-79
2023/12/13 06:31:53;;;;;;;9.18;3.80;;;;;;;7.57;84.19;95139.53;4937227;29;20055;-78
2023/12/13 06:34:22;;;;;;;8.38;3.85;;;;;;;7.55;83.80;95136.34;4938227;29;20054;-78
2023/12/13 06:36:49;;;;;;;5.57;3.65;;;;;;;7.51;83.18;95135.16;4936224;29;20221;-78
2023/12/13 06:39:18;;;;;;;5.93;3.50;;;;;;;7.47;83.06;95126.16;4936015;29;20052;-77
2023/12/13 06:41:46;;;;;;;6.32;3.22;;;;;;;7.45;83.15;95126.34;4935996;29;20055;-78
2023/12/13 06:44:14;;;;;;;5.25;2.63;;;;;;;7.45;84.36;95128.94;4935941;29;20060;-77
2023/12/13 06:46:41;;;;;;;8.85;4.10;;;;;;;7.45;84.67;95135.94;4936324;29;20062;-78
2023/12/13 06:49:09;;;;;;;9.23;5.28;;;;;;;7.43;84.35;95131.75;4934319;29;20044;-79
2023/12/13 06:51:37;;;;;;;16.75;6.15;;;;;;;7.42;83.70;95132.72;4926269;29;20055;-79
2023/12/13 06:54:08;;;;;;;14.02;5.10;;;;;;;7.37;83.19;95124.75;4927925;29;20047;-81
2023/12/13 06:56:37;;;;;;;10.70;4.15;;;;;;;7.31;82.94;95128.13;4936877;29;20492;-80
2023/12/13 06:59:04;;;;;;;9.18;3.88;;;;;;;7.26;83.28;95132.31;4935968;29;20044;-79
2023/12/13 07:01:32;;;;;;;7.03;3.45;;;;;;;7.18;83.60;95136.69;4936373;29;20051;-80
2023/12/13 07:04:01;;;;;;;7.00;3.25;;;;;;;7.16;84.47;95140.47;4934539;29;20044;-78
2023/12/13 07:06:28;;;;;;;6.82;3.53;;;;;;;7.12;84.53;95136.66;4935812;29;20080;-79
2023/12/13 07:08:56;;;;;;;7.88;3.15;;;;;;;7.09;84.71;95143.06;4934113;29;20094;-78
2023/12/13 07:11:24;;;;;;;5.32;2.78;;;;;;;7.05;83.83;95133.28;4934014;29;20079;-78
2023/12/13 07:13:56;;;;;;;18.83;2.38;;;;;;;6.95;83.34;95137.03;4946129;29;20079;-79
2023/12/13 07:16:24;;;;;;;4.68;1.60;;;;;;;6.91;83.63;95135.81;4943183;29;20099;-78
2023/12/13 07:18:51;;;;;;;6.10;1.58;;;;;;;6.86;83.75;95130.41;4926450;29;20054;-78
2023/12/13 07:21:20;;;;;;;6.93;3.13;;;;;;;6.84;83.40;95129.78;4937168;29;20103;-79
2023/12/13 07:23:48;;;;;;;1.75;1.63;;;;;;;6.82;83.48;95131.78;4935519;29;20135;-79
2023/12/13 07:26:16;;;;;;;2.92;1.10;;;;;;;6.81;83.40;95130.19;4934579;29;21133;-79
2023/12/13 07:28:44;;;;;;;2.92;1.70;;;;;;;6.78;83.64;95113.25;4935018;29;20048;-78
2023/12/13 07:31:13;;;;;;;1.98;1.45;;;;;;;6.78;83.67;95117.63;4935031;29;20047;-78
2023/12/13 07:33:41;;;;;;;1.98;1.13;;;;;;;6.76;83.92;95119.63;4935455;29;20134;-78
2023/12/13 07:36:12;;;;;;;4.30;1.33;;;;;;;6.78;84.21;95115.06;4935698;29;20063;-79
2023/12/13 07:38:41;;;;;;;4.75;1.83;;;;;;;6.77;84.22;95119.41;4935615;29;20052;-78
2023/12/13 07:41:09;;;;;;;1.88;1.42;;;;;;;6.78;83.94;95122.81;4931246;29;20040;-78
2023/12/13 07:43:37;;;;;;;4.93;1.85;;;;;;;6.78;83.84;95122.81;4935596;29;20107;-78
2023/12/13 07:46:05;;;;;;;5.57;1.60;;;;;;;6.79;84.09;95121.81;4935217;29;20440;-79
2023/12/13 07:48:34;;;;;;;4.82;1.77;;;;;;;6.79;83.74;95121.81;4935573;29;20106;-79
2023/12/13 07:51:03;;;;;;;4.03;1.48;;;;;;;6.77;83.73;95123.81;4934688;29;20048;-79
2023/12/13 07:53:30;;;;;;;2.90;1.95;;;;;;;6.76;84.04;95127.41;4935264;29;20500;-80
2023/12/13 07:55:58;;;;;;;4.95;1.85;;;;;;;6.76;84.39;95124.81;4920103;29;20389;-79
2023/12/13 07:58:26;;;;;;;4.07;2.38;;;;;;;6.76;84.36;95130.78;4935340;29;20074;-79
2023/12/13 08:00:53;;;;;;;2.70;1.58;;;;;;;6.76;84.13;95135.97;4935450;29;20532;-81
2023/12/13 08:03:21;;;;;;;2.33;1.73;;;;;;;6.77;84.05;95126.38;4936014;29;20055;-79
2023/12/13 08:05:50;;;;;;;3.20;1.20;;;;;;;6.79;84.48;95130.38;4938357;29;20059;-79
2023/12/13 08:08:18;;;;;;;2.50;1.20;;;;;;;6.85;85.80;95133.22;4938875;29;20437;-79
2023/12/13 08:10:46;;;;;;;1.33;0.80;;;;;;;6.87;85.22;95124.25;4938879;29;20051;-79
2023/12/13 08:13:14;;;;;;;1.52;1.08;;;;;;;6.89;85.25;95130.03;4938541;29;20127;-79
2023/12/13 08:15:44;;;;;;;2.72;1.10;;;;;;;6.93;84.92;95123.47;4939276;29;20431;-79
2023/12/13 08:18:12;;;;;;;3.45;1.10;;;;;;;6.99;84.63;95130.44;4938705;29;20058;-79
2023/12/13 08:20:39;;;;;;;2.55;1.10;;;;;;;7.05;85.37;95115.13;4938753;29;20428;-79
2023/12/13 08:23:08;;;;;;;2.45;1.40;;;;;;;7.11;85.29;95119.53;4942110;29;20106;-79
2023/12/13 08:25:36;;;;;;;10.50;1.70;;;;;;;7.11;84.66;95117.72;4957776;29;20059;-79
2023/12/13 08:28:04;;;;;;;2.17;1.05;;;;;;;7.10;84.72;95117.91;4941035;29;20051;-79
2023/12/13 08:30:31;;;;;;;3.60;1.77;;;;;;;7.12;85.99;95115.94;4938300;29;20044;-79
2023/12/13 08:32:59;;;;;;;2.55;1.63;;;;;;;7.14;85.76;95121.72;4939343;29;20059;-80
2023/12/13 08:35:27;;;;;;;4.55;2.00;;;;;;;7.14;85.59;95116.53;4939687;29;20054;-81
2023/12/13 08:37:55;;;;;;;3.83;2.42;;;;;;;7.14;86.13;95109.53;4937965;29;20083;-79
2023/12/13 08:40:24;;;;;;;4.07;3.30;;;;;;;7.16;86.91;95107.56;4938852;29;20250;-80
2023/12/13 08:42:51;;;;;;;5.25;3.13;;;;;;;7.18;86.33;95104.78;4938171;29;20044;-80
2023/12/13 08:45:19;;;;;;;8.10;3.72;;;;;;;7.19;85.88;95106.34;4938705;29;20055;-79
2023/12/13 08:47:46;;;;;;;7.20;4.00;;;;;;;7.18;85.58;95109.97;4938531;29;20060;-80
2023/12/13 08:50:15;;;;;;;5.32;3.85;;;;;;;7.18;86.00;95115.16;4948869;23;20068;-80
2023/12/13 08:52:43;;;;;;;4.10;3.17;;;;;;;7.20;85.72;95113.16;4975522;28;20054;-79
2023/12/13 08:55:10;;;;;;;7.03;3.67;;;;;;;7.20;86.17;95113.94;4969479;28;20051;-80
2023/12/13 08:57:39;;;;;;;5.75;3.85;;;;;;;7.22;86.64;95108.56;4957475;28;20059;-79
2023/12/13 09:00:08;;;;;;;3.30;2.90;;;;;;;7.25;87.08;95109.97;4960209;28;20090;-81
2023/12/13 09:02:38;;;;;;;4.00;2.78;;;;;;;7.27;87.29;95106.19;4977142;28;20062;-80
2023/12/13 09:05:07;;;;;;;3.38;2.50;;;;;;;7.32;86.97;95101.19;4976636;28;20062;-80
2023/12/13 09:07:35;;;;;;;3.65;2.63;;;;;;;7.34;86.19;95104.38;4962331;28;20054;-80
2023/12/13 09:10:05;;;;;;;4.85;3.22;;;;;;;7.35;85.72;95097.41;4961447;28;20057;-79
2023/12/13 09:12:32;;;;;;;5.40;3.35;;;;;;;7.38;85.94;95097.81;4978311;28;20438;-80
2023/12/13 09:15:02;;;;;;;4.97;2.90;;;;;;;7.42;85.90;95093.81;4976507;28;20134;-80
2023/12/13 09:17:30;;;;;;;7.28;4.00;;;;;;;7.46;86.45;95089.03;4937751;29;20048;-81
2023/12/13 09:19:58;;;;;;;5.18;3.70;;;;;;;7.50;85.90;95097.22;4963515;28;20057;-79
2023/12/13 09:22:26;;;;;;;6.53;4.00;;;;;;;7.47;85.21;95098.41;4976188;28;20097;-79
2023/12/13 09:24:53;;;;;;;6.78;4.30;;;;;;;7.49;85.66;95101.59;4966317;28;20061;-80
2023/12/13 09:27:22;;;;;;;9.55;4.93;;;;;;;7.51;85.38;95104.81;4976699;28;20086;-80
2023/12/13 09:29:50;;;;;;;10.70;4.30;;;;;;;7.55;84.95;95097.44;4960206;28;20102;-80
2023/12/13 09:32:20;;;;;;;2.85;2.65;;;;;;;7.55;84.30;95100.81;4959210;28;20518;-79
2023/12/13 09:34:47;;;;;;;4.38;2.78;;;;;;;7.59;84.62;95096.03;4957027;29;20079;-79
2023/12/13 09:37:15;;;;;;;9.63;3.53;;;;;;;7.61;85.11;95101.81;4956933;28;20043;-80
2023/12/13 09:39:45;;;;;;;7.40;4.00;;;;;;;7.66;85.78;95106.41;4957760;28;20062;-80
2023/12/13 09:42:15;;;;;;;4.97;3.63;;;;;;;7.68;86.16;95113.00;4956907;29;20054;-80
2023/12/13 09:44:44;;;;;;;6.45;3.67;;;;;;;7.70;86.20;95105.81;4961356;28;20062;-78
2023/12/13 09:47:14;;;;;;;6.28;4.07;;;;;;;7.73;85.95;95108.00;4956542;28;20055;-80
2023/12/13 09:49:43;;;;;;;3.47;3.05;;;;;;;7.77;85.71;95119.56;4958198;28;20051;-80
2023/12/13 09:52:11;;;;;;;4.55;3.20;;;;;;;7.79;85.32;95120.19;4959402;28;20040;-79
2023/12/13 09:54:44;;;;;;;4.60;3.15;;;;;;;7.79;84.58;95114.97;4971658;28;20118;-79
2023/12/13 09:57:12;;;;;;;9.52;3.33;;;;;;;7.81;84.42;95130.38;4960656;28;20142;-78
2023/12/13 09:59:40;;;;;;;5.47;3.42;;;;;;;7.81;84.27;95130.38;4969543;28;20055;-81
2023/12/13 10:05:01;;;;;;;4.53;2.30;;;;;;;7.81;84.59;95125.97;4965120;28;20510;-79
2023/12/13 10:07:29;;;;;;;5.47;2.17;;;;;;;7.82;84.87;95127.56;4963439;28;20043;-78
2023/12/13 10:09:56;;;;;;;2.33;1.85;;;;;;;7.86;86.18;95127.16;4974821;28;20435;-78
2023/12/13 10:12:26;;;;;;;3.00;2.60;;;;;;;7.90;86.52;95128.38;4981892;28;20102;-79
2023/12/13 10:14:53;;;;;;;4.30;2.50;;;;;;;7.94;87.09;95125.16;4957772;28;20090;-80
2023/12/13 10:17:22;;;;;;;6.55;3.10;;;;;;;7.96;86.83;95119.75;4981511;28;20050;-80
2023/12/13 10:19:49;;;;;;;5.93;4.07;;;;;;;7.97;87.14;95118.75;4977985;28;20047;-79
2023/12/13 10:22:19;;;;;;;7.03;3.75;;;;;;;8.00;87.56;95120.94;4972771;28;20047;-79
2023/12/13 10:24:47;;;;;;;7.20;4.50;;;;;;;8.03;88.03;95125.75;4960415;28;20141;-79
2023/12/13 10:27:15;;;;;;;6.43;3.85;;;;;;;8.08;87.77;95118.16;4963810;28;20051;-79
2023/12/13 10:29:43;;;;;;;6.88;2.95;;;;;;;8.08;86.45;95115.56;4974785;28;20110;-79
2023/12/13 10:32:11;;;;;;;7.25;3.88;;;;;;;8.08;85.91;95109.56;4965756;28;20070;-79
2023/12/13 10:34:40;;;;;;;5.72;3.15;;;;;;;8.10;85.64;95110.16;4974515;28;20053;-80
2023/12/13 10:37:08;;;;;;;4.43;3.15;;;;;;;8.10;85.28;95107.56;4974704;28;20585;-79
2023/12/13 10:39:38;;;;;;;7.65;3.28;;;;;;;8.12;86.10;95106.34;4973106;28;20147;-79
2023/12/13 10:42:07;;;;;;;4.05;3.08;;;;;;;8.13;85.82;95107.94;4974578;28;20491;-79
2023/12/13 10:44:35;;;;;;;5.22;3.22;;;;;;;8.14;85.67;95111.34;4969851;28;20146;-79
2023/12/13 10:47:08;;;;;;;4.15;3.00;;;;;;;8.17;86.19;95105.75;4969265;28;20047;-79
2023/12/13 10:49:37;;;;;;;5.63;3.42;;;;;;;8.19;85.72;95103.75;4973325;28;20055;-80
2023/12/13 10:52:07;;;;;;;4.80;2.97;;;;;;;8.20;85.17;95108.75;4974839;28;20047;-80
2023/12/13 10:54:36;;;;;;;4.25;2.75;;;;;;;8.21;85.82;95105.13;4972495;28;20051;-80
2023/12/13 10:57:05;;;;;;;5.40;3.00;;;;;;;8.24;85.95;95109.94;4971128;28;20101;-79
2023/12/13 10:59:34;;;;;;;4.90;3.38;;;;;;;8.25;85.28;95100.34;4955241;28;20051;-80
2023/12/13 11:02:04;;;;;;;6.25;3.72;;;;;;;8.29;85.69;95106.72;4956390;28;20102;-79
2023/12/13 11:04:32;;;;;;;3.92;2.58;;;;;;;8.34;85.78;95103.53;4955479;28;20075;-79
2023/12/13 11:07:03;;;;;;;4.68;2.75;;;;;;;8.39;86.16;95106.28;4954958;29;20054;-79
2023/12/13 11:09:37;;;;;;;4.35;1.70;;;;;;;8.43;86.32;95099.72;4956171;28;20047;-80
2023/12/13 11:12:12;;;;;;;2.88;1.50;;;;;;;8.48;86.24;95107.69;4956744;28;20095;-79
2023/12/13 11:14:41;;;;;;;2.20;1.83;;;;;;;8.55;87.48;95105.06;4974273;28;20081;-80
2023/12/13 11:17:08;;;;;;;2.88;2.10;;;;;;;8.60;88.58;95107.88;4966575;28;20046;-79
2023/12/13 11:19:37;;;;;;;2.72;1.73;;;;;;;8.65;89.41;95095.81;4975213;28;20062;-79
2023/12/13 11:22:06;;;;;;;2.75;1.52;;;;;;;8.69;89.86;95101.41;4974798;28;20074;-79
2023/12/13 11:24:36;;;;;;;2.20;1.05;;;;;;;8.70;89.05;95095.22;4964925;28;20055;-80
2023/12/13 11:27:10;;;;;;;2.72;1.40;;;;;;;8.72;88.12;95090.59;4961512;28;20043;-79
2023/12/13 11:29:45;;;;;;;1.70;1.00;;;;;;;8.76;89.10;95094.38;4973778;28;20058;-80
2023/12/13 11:32:13;;;;;;;2.22;1.45;;;;;;;8.78;88.88;95081.97;4972118;28;20093;-78
2023/12/13 11:34:42;;;;;;;1.67;0.80;;;;;;;8.81;88.25;95088.56;4974112;28;20510;-80
2023/12/13 11:37:12;;;;;;;1.92;0.80;;;;;;;8.83;87.48;95092.56;4975294;28;20090;-80
2023/12/13 11:39:42;;;;;;;1.40;0.70;;;;;;;8.86;87.82;95086.94;4968978;28;20043;-80
2023/12/13 11:42:11;;;;;;;2.90;1.02;;;;;;;8.87;85.98;95082.53;4973356;28;20098;-79
2023/12/13 11:44:41;;;;;;;3.03;1.90;;;;;;;8.85;85.60;95079.34;4977669;28;20055;-81
2023/12/13 11:47:11;;;;;;;5.03;2.20;;;;;;;8.82;85.29;95075.38;4981040;28;20051;-80
2023/12/13 11:49:40;;;;;;;6.57;4.18;;;;;;;8.78;84.63;95076.00;4967732;28;20047;-81
2023/12/13 11:52:10;;;;;;;11.20;4.68;;;;;;;8.75;84.96;95076.41;4957629;28;20050;-80
2023/12/13 11:54:38;;;;;;;6.95;4.03;;;;;;;8.74;85.56;95073.00;4966626;28;20078;-81
2023/12/13 11:57:13;;;;;;;4.45;2.38;;;;;;;8.76;85.27;95068.38;4954527;28;20058;-80
2023/12/13 11:59:43;;;;;;;4.18;3.20;;;;;;;8.77;84.95;95071.81;4954050;29;20062;-80
2023/12/13 12:02:12;;;;;;;6.45;3.53;;;;;;;8.77;84.68;95077.78;4958101;28;20098;-79
2023/12/13 12:04:40;;;;;;;7.72;3.13;;;;;;;8.79;84.69;95074.97;4935105;29;20052;-79
2023/12/13 12:07:14;;;;;;;4.78;3.05;;;;;;;8.81;84.33;95072.97;4941526;28;20047;-79
2023/12/13 12:09:41;;;;;;;5.50;2.97;;;;;;;8.83;84.75;95070.94;4955190;28;20497;-79
2023/12/13 12:12:10;;;;;;;4.43;2.85;;;;;;;8.86;86.12;95073.94;4953716;29;20114;-79
2023/12/13 12:14:38;;;;;;;5.07;3.30;;;;;;;8.93;86.72;95071.31;4954148;29;20400;-79
2023/12/13 12:17:07;;;;;;;3.92;2.33;;;;;;;8.96;85.90;95065.69;4969369;28;20057;-78
2023/12/13 12:19:35;;;;;;;4.07;2.63;;;;;;;8.98;84.88;95057.69;4956780;28;20066;-79
2023/12/13 12:22:03;;;;;;;13.45;7.28;;;;;;;9.00;84.20;95050.47;4958663;28;20071;-79
2023/12/13 12:24:31;;;;;;;14.73;7.55;;;;;;;9.02;84.45;95054.44;4963075;28;20051;-78
2023/12/13 12:27:08;;;;;;;13.95;7.03;;;;;;;9.07;85.47;95054.63;4971868;28;20050;-78
2023/12/13 12:29:35;;;;;;;11.07;5.97;;;;;;;9.15;86.93;95055.38;4964409;28;20078;-78
2023/12/13 12:32:07;;;;;;;9.75;5.50;;;;;;;9.23;88.05;95045.50;4969999;28;20047;-78
2023/12/13 12:34:37;;;;;;;6.50;3.92;;;;;;;9.34;89.06;95054.44;4971447;28;20047;-78
2023/12/13 12:37:05;;;;;;;4.03;1.88;;;;;;;9.41;88.31;95051.78;4961875;28;20135;-78
2023/12/13 12:39:34;;;;;;;2.42;1.40;;;;;;;9.47;88.63;95056.94;4954111;29;20079;-78
2023/12/13 12:42:03;;;;;;;2.50;1.30;;;;;;;9.55;88.52;95047.25;4954882;28;20043;-78
2023/12/13 12:44:31;;;;;;;2.00;1.38;;;;;;;9.63;87.81;95047.00;4953572;29;20089;-78
2023/12/13 12:46:58;;;;;;;2.95;0.90;;;;;;;9.69;85.61;95048.75;4954686;28;20058;-79
2023/12/13 12:49:26;;;;;;;1.92;1.05;;;;;;;9.76;85.61;95040.88;4953381;28;20471;-81
2023/12/13 12:51:55;;;;;;;4.15;1.40;;;;;;;9.84;85.27;95040.63;4963848;28;20055;-78
2023/12/13 12:54:23;;;;;;;4.75;1.40;;;;;;;9.92;84.37;95036.91;4976404;28;20113;-78
2023/12/13 12:56:51;;;;;;;2.67;0.98;;;;;;;9.93;83.02;95033.28;4963083;28;20134;-77
2023/12/13 12:59:21;;;;;;;3.45;0.63;;;;;;;9.95;82.63;95028.66;4956508;29;20055;-77
2023/12/13 13:01:49;;;;;;;1.20;0.70;;;;;;;10.01;82.73;95025.19;4970426;28;20058;-78
2023/12/13 13:04:19;;;;;;;2.47;1.27;;;;;;;10.08;83.13;95025.94;4970547;28;20057;-77
2023/12/13 13:06:47;;;;;;;4.35;1.25;;;;;;;10.15;84.30;95026.66;4974548;28;20051;-78
2023/12/13 13:09:16;;;;;;;3.00;1.05;;;;;;;10.15;82.98;95031.88;4969580;28;20423;-78
2023/12/13 13:11:45;;;;;;;3.03;0.93;;;;;;;10.13;82.24;95031.28;4957800;28;20105;-78
2023/12/13 13:14:12;;;;;;;2.55;0.90;;;;;;;10.15;83.56;95034.47;4958403;28;20074;-78
2023/12/13 13:16:40;;;;;;;4.10;1.15;;;;;;;10.20;84.18;95039.03;4961221;28;20047;-78
2023/12/13 13:19:08;;;;;;;4.90;1.30;;;;;;;10.21;85.02;95044.03;4967953;28;20089;-78
2023/12/13 13:21:35;;;;;;;3.97;1.63;;;;;;;10.22;85.99;95043.00;4974065;28;20487;-79
2023/12/13 13:24:04;;;;;;;1.92;1.10;;;;;;;10.21;85.39;95046.66;4956418;28;20102;-77
2023/12/13 13:26:36;;;;;;;2.25;1.40;;;;;;;10.20;85.59;95045.03;4974128;28;20057;-78
2023/12/13 13:29:04;;;;;;;1.95;1.30;;;;;;;10.21;85.42;95046.66;4974479;28;20057;-79
2023/12/13 13:31:33;;;;;;;2.17;1.48;;;;;;;10.21;85.41;95043.22;4963397;28;20105;-79
2023/12/13 13:34:00;;;;;;;2.80;1.02;;;;;;;10.22;85.22;95039.63;4968415;28;20047;-78
2023/12/13 13:36:28;;;;;;;1.92;1.00;;;;;;;10.20;83.97;95034.63;4968819;28;20051;-78
2023/12/13 13:38:56;;;;;;;1.63;1.00;;;;;;;10.20;84.32;95032.00;4957213;28;20051;-77
2023/12/13 13:41:25;;;;;;;1.95;1.25;;;;;;;10.19;83.58;95033.03;4957016;28;20134;-77
2023/12/13 13:43:54;;;;;;;4.88;1.33;;;;;;;10.17;82.28;95034.28;4966985;28;20051;-78
2023/12/13 13:46:22;;;;;;;1.45;1.20;;;;;;;10.16;82.78;95030.84;4974782;28;20061;-78
2023/12/13 13:48:52;;;;;;;1.65;0.85;;;;;;;10.16;82.17;95025.63;4955629;28;20515;-78
2023/12/13 13:51:20;;;;;;;2.38;1.35;;;;;;;10.14;81.63;95022.44;4964599;28;20094;-78
2023/12/13 13:53:48;;;;;;;5.80;1.35;;;;;;;10.11;80.40;95020.28;4957901;28;20082;-77
2023/12/13 13:56:15;;;;;;;1.77;1.10;;;;;;;10.10;80.47;95021.28;4957758;28;20483;-77
2023/12/13 13:58:48;;;;;;;;;;;;;;;10.12;80.84;95027.06;4958449;28;20055;-77
2023/12/13 14:01:17;;;;;;;4.38;1.48;;;;;;;10.08;80.23;95020.72;4951098;28;20447;-77
2023/12/13 14:03:45;;;;;;;1.98;1.30;;;;;;;10.03;80.07;95023.19;4946437;28;20057;-78
2023/12/13 14:06:12;;;;;;;1.58;1.40;;;;;;;9.98;79.95;95025.63;4962693;28;20078;-78
2023/12/13 14:08:40;;;;;;;2.13;1.60;;;;;;;9.98;81.67;95025.63;4972620;28;20170;-78
2023/12/13 14:11:09;;;;;;;2.17;1.42;;;;;;;9.99;80.88;95035.03;4956982;28;20122;-77
2023/12/13 14:13:37;;;;;;;1.85;1.30;;;;;;;9.99;81.80;95024.63;4955061;29;20083;-78